La Place, LA (70069)

4:14 PM CDT on September 30, 2014 (GMT -0500)
KA5ZCI River Forest | Change Station
CLOSE
Current Station
Personal Weather Station
Location: Laplace, LA
Elevation: 6 ft
Nearby Weather Stations

Elev 6 ft 30.06 °N, 90.45 °W | Updated 11 seconds ago

Partly Cloudy
Partly Cloudy
87.6 °F
Feels Like 96 °F
N
8.1
Wind Variable Wind from NE
Gusts 8.1 mph

Today
High -- | Low -- °F
--% Chance of Precip.
Yesterday
High -- | Low -- °F
Precip. -- in
6:54 AM 6:48 PM
Waxing Crescent, 40% visible
Pressure 29.85 in
Visibility 10.0 miles
Clouds Few 3000 ft
Few 10000 ft
Few 20000 ft
Heat Index 96 °F
Dew Point 74 °F
Humidity 63%
Rainfall 0.00 in
Snow Depth Not available.
UV 5 out of 12
Pollen 7.30 out of 12
Ozone Good
PM2.5 Good
Flu Activity Not available.
METAR KMSY 302053Z 05012KT 10SM FEW030 FEW100 FEW200 31/21 A2983 RMK AO2 SLP106 T03110206 56018

More Conditions Fewer Conditions

Pressure 29.85 in
Visibility 10.0 miles
Clouds Few 3000 ft
Few 10000 ft
Few 20000 ft
Heat Index 96 °F
Dew Point 74 °F
Humidity 63%
Rainfall 0.00 in
Snow Depth Not available.
UV 5 out of 12
Pollen 7.30 out of 12
Ozone Good
PM2.5 Good
Flu Activity Not available.
METAR KMSY 302053Z 05012KT 10SM FEW030 FEW100 FEW200 31/21 A2983 RMK AO2 SLP106 T03110206 56018

More Conditions Fewer Conditions

10-Day Weather Forecast

Almanac

Astronomy

Sep. 30, 2014 Rise Set
Actual Time 6:54 AM CDT 6:48 PM CDT
Civil Twilight 6:30 AM CDT 7:12 PM CDT
Nautical Twilight 6:03 AM CDT 7:40 PM CDT
Astronomical Twilight 5:35 AM CDT 8:07 PM CDT
Moon 12:43 PM CDT 11:37 PM CDT
Length of Visible Light 12h 41m
Length of Day
11h 53m
Tomorrow will be 1m 49s shorter.
Waxing Crescent, 40% of the Moon is Illuminated
Today
Waxing Crescent
Oct 1
First Quarter
Oct 8
Full
Oct 15
Last Quarter
Oct 23
New

Today's Extremes

State Highs State Lows

Community

WunderPhotos

Upload Photos

1,757,749 photos uploaded!

Nearby

Air Quality

  Air Quality AQ Index Pollutant
Yesterday Good
PM2.5
Yesterday Good
OZONE
Current Good
PM2.5
Current Good
OZONE
Tuesday Good
PM2.5
Tuesday Good
OZONE
Wednesday Good
OZONE
Wednesday Good
PM2.5
Thursday Good
PM2.5
Thursday Good
OZONE

Snow Depth

Station Depth Elevation
No new snow has been reported.

Earthquake Activity

City Distance Mag. Time & Date
No recent earthquake activity has been reported nearby.
Minimum magnitude displayed is 2.5.

Coastal Water Temperatures

Place Temperature
New Canal, LA 78.1 °F
Shell Beach, LA 77.0 °F
Bayou Gauche, LA 82.0 °F

Nearby Weather Stations